Time;durP1;ratioP1;P1;durP2;ratioP2;P2;SDS_P1;SDS_P2;PMS_P1;PMS_P2;Temp;Humidity;BMP_temperature;BMP_pressure;BME280_temperature;BME280_humidity;BME280_pressure;Samples;Min_cycle;Max_cycle;Signal;HPM_P1;HPM_P2
2022/03/17 00:01:54;;;;;;;;;;;19.90;38.00;;;;;;5067011;28;19920;-49
2022/03/17 00:04:22;;;;;;;;;;;19.90;38.00;;;;;;5058899;28;19924;-43
2022/03/17 00:06:49;;;;;;;;;;;19.80;38.00;;;;;;5058047;28;19924;-49
2022/03/17 00:09:15;;;;;;;;;;;19.80;38.00;;;;;;5057356;28;19928;-46
2022/03/17 00:11:42;;;;;;;;;;;19.90;38.10;;;;;;5061128;28;19929;-45
2022/03/17 00:14:09;;;;;;;;;;;19.90;38.10;;;;;;5053849;28;20327;-48
2022/03/17 00:16:36;;;;;;;;;;;19.90;38.10;;;;;;5059650;28;19924;-47
2022/03/17 00:19:07;;;;;;;;;;;19.80;38.00;;;;;;5055242;28;19942;-44
2022/03/17 00:21:40;;;;;;;;;;;19.80;38.60;;;;;;5073306;28;19970;-44
2022/03/17 00:24:07;;;;;;;;;;;19.90;38.10;;;;;;5053794;28;19925;-45
2022/03/17 00:26:34;;;;;;;;;;;19.80;38.10;;;;;;5048397;28;19943;-46
2022/03/17 00:29:02;;;;;;;;;;;19.80;38.10;;;;;;5057380;28;19960;-47
2022/03/17 00:31:29;;;;;;;;;;;19.80;38.10;;;;;;5050623;28;20294;-43
2022/03/17 00:33:55;;;;;;;;;;;19.90;38.20;;;;;;5048567;28;19939;-48
2022/03/17 00:36:23;;;;;;;;;;;19.90;38.10;;;;;;5070298;28;19970;-44
2022/03/17 00:38:50;;;;;;;;;;;19.90;38.20;;;;;;5069557;28;19991;-44
2022/03/17 00:41:17;;;;;;;;;;;19.90;38.20;;;;;;5052684;28;19931;-48
2022/03/17 00:43:44;;;;;;;;;;;19.90;38.20;;;;;;5066100;28;19920;-45
2022/03/17 00:46:11;;;;;;;;;;;19.90;38.20;;;;;;5054931;28;20019;-45
2022/03/17 00:48:37;;;;;;;;;;;19.90;38.20;;;;;;5060528;28;20400;-45
2022/03/17 00:51:05;;;;;;;;;;;19.80;38.10;;;;;;5054598;28;20036;-47
2022/03/17 00:53:33;;;;;;;;;;;19.90;38.20;;;;;;5065961;28;19920;-44
2022/03/17 00:56:00;;;;;;;;;;;19.90;38.20;;;;;;5069145;28;19930;-44
2022/03/17 00:58:29;;;;;;;;;;;19.90;38.20;;;;;;5044318;28;20359;-46
2022/03/17 01:00:55;;;;;;;;;;;19.90;38.20;;;;;;5052389;28;19999;-47
2022/03/17 01:03:22;;;;;;;;;;;19.90;38.20;;;;;;5054779;28;19931;-45
2022/03/17 01:05:51;;;;;;;;;;;19.90;38.20;;;;;;5047683;28;19920;-43
2022/03/17 01:08:18;;;;;;;;;;;19.90;38.20;;;;;;5049775;28;19940;-47
2022/03/17 01:10:46;;;;;;;;;;;19.90;38.20;;;;;;5067184;28;20431;-50
2022/03/17 01:13:14;;;;;;;;;;;19.90;38.20;;;;;;5068203;28;19954;-44
2022/03/17 01:15:41;;;;;;;;;;;19.90;38.20;;;;;;5052899;28;19927;-44
2022/03/17 01:18:08;;;;;;;;;;;19.90;38.20;;;;;;5052130;28;20348;-49
2022/03/17 01:20:35;;;;;;;;;;;19.90;38.20;;;;;;5058753;28;19989;-48
2022/03/17 01:23:04;;;;;;;;;;;19.90;38.20;;;;;;5056020;28;19920;-44
2022/03/17 01:25:31;;;;;;;;;;;19.90;38.20;;;;;;5048382;28;19925;-48
2022/03/17 01:27:59;;;;;;;;;;;19.90;38.20;;;;;;5053085;28;19981;-47
2022/03/17 01:30:26;;;;;;;;;;;19.90;38.20;;;;;;5054900;28;19950;-44
2022/03/17 01:32:53;;;;;;;;;;;19.90;38.20;;;;;;5059267;28;19931;-47
2022/03/17 01:35:20;;;;;;;;;;;19.90;38.20;;;;;;5063916;28;19967;-45
2022/03/17 01:37:46;;;;;;;;;;;19.90;38.20;;;;;;5053918;28;19930;-44
2022/03/17 01:40:13;;;;;;;;;;;19.90;38.20;;;;;;5048070;28;20015;-47
2022/03/17 01:42:40;;;;;;;;;;;19.90;38.20;;;;;;5063596;28;19931;-45
2022/03/17 01:45:09;;;;;;;;;;;19.90;38.20;;;;;;5072474;28;19924;-45
2022/03/17 01:47:38;;;;;;;;;;;19.90;38.30;;;;;;5065110;28;19959;-44
2022/03/17 01:50:06;;;;;;;;;;;19.90;38.30;;;;;;5043760;28;20573;-46
2022/03/17 01:52:33;;;;;;;;;;;19.90;38.30;;;;;;5046577;28;19920;-44
2022/03/17 01:54:59;;;;;;;;;;;19.90;38.20;;;;;;5052734;28;19928;-45
2022/03/17 01:57:26;;;;;;;;;;;19.90;38.20;;;;;;5052079;28;20288;-47
2022/03/17 01:59:55;;;;;;;;;;;19.90;38.20;;;;;;5052298;28;19979;-44
2022/03/17 02:02:24;;;;;;;;;;;19.90;38.30;;;;;;5050875;28;19920;-48
2022/03/17 02:05:10;;;;;;;;;;;19.90;38.20;;;;;;5063371;28;20082;-45
2022/03/17 02:07:38;;;;;;;;;;;19.90;38.20;;;;;;5043806;28;20350;-47
2022/03/17 02:10:05;;;;;;;;;;;19.90;38.30;;;;;;5054003;28;19959;-49
2022/03/17 02:15:16;;;;;;;;;;;19.90;38.30;;;;;;5057044;28;19924;-46
2022/03/17 02:17:44;;;;;;;;;;;19.90;38.30;;;;;;5058285;28;19924;-51
2022/03/17 02:20:12;;;;;;;;;;;19.90;38.20;;;;;;5053366;28;19936;-51
2022/03/17 02:22:41;;;;;;;;;;;19.90;38.20;;;;;;5064936;28;19924;-45
2022/03/17 02:27:49;;;;;;;;;;;19.90;38.20;;;;;;5051539;28;19928;-44
2022/03/17 02:30:17;;;;;;;;;;;19.90;38.20;;;;;;5058067;28;20007;-48
2022/03/17 02:32:43;;;;;;;;;;;19.90;38.30;;;;;;5056000;28;20349;-44
2022/03/17 02:35:11;;;;;;;;;;;19.90;38.30;;;;;;5056390;28;19970;-46
2022/03/17 02:37:37;;;;;;;;;;;19.90;38.30;;;;;;5059992;28;19929;-46
2022/03/17 02:40:05;;;;;;;;;;;19.90;38.30;;;;;;5060957;28;19966;-46
2022/03/17 02:42:33;;;;;;;;;;;19.90;38.30;;;;;;5053039;28;19970;-47
2022/03/17 02:45:02;;;;;;;;;;;19.90;38.30;;;;;;5054549;28;22479;-46
2022/03/17 02:47:29;;;;;;;;;;;19.90;38.30;;;;;;5053463;28;19974;-44
2022/03/17 02:49:56;;;;;;;;;;;19.90;38.30;;;;;;5056705;28;20366;-46
2022/03/17 02:52:24;;;;;;;;;;;19.90;38.30;;;;;;5054632;28;19951;-44
2022/03/17 02:54:51;;;;;;;;;;;19.90;38.30;;;;;;5071142;28;19972;-46
2022/03/17 02:57:22;;;;;;;;;;;19.90;38.30;;;;;;5060512;28;19960;-44
2022/03/17 02:59:51;;;;;;;;;;;19.90;38.30;;;;;;5071815;28;19928;-49
2022/03/17 03:02:18;;;;;;;;;;;19.90;38.90;;;;;;5056323;28;19966;-44
2022/03/17 03:04:52;;;;;;;;;;;19.90;38.30;;;;;;5054777;28;20358;-43
2022/03/17 03:07:19;;;;;;;;;;;19.90;38.30;;;;;;5072380;28;19920;-45
2022/03/17 03:09:46;;;;;;;;;;;19.90;38.30;;;;;;5041825;28;19927;-46
2022/03/17 03:12:13;;;;;;;;;;;19.90;38.30;;;;;;5056102;28;19932;-45
2022/03/17 03:14:41;;;;;;;;;;;19.90;38.30;;;;;;5052086;28;19924;-50
2022/03/17 03:17:09;;;;;;;;;;;19.90;38.30;;;;;;5056091;28;20451;-44
2022/03/17 03:19:36;;;;;;;;;;;19.90;38.30;;;;;;5059136;28;19980;-46
2022/03/17 03:22:03;;;;;;;;;;;19.90;38.30;;;;;;5057428;28;19921;-45
2022/03/17 03:24:33;;;;;;;;;;;19.90;38.30;;;;;;5064719;28;20290;-46
2022/03/17 03:27:00;;;;;;;;;;;19.90;38.30;;;;;;5054183;28;19984;-44
2022/03/17 03:29:26;;;;;;;;;;;19.90;38.30;;;;;;5051119;28;19925;-46
2022/03/17 03:31:53;;;;;;;;;;;19.90;38.30;;;;;;5058986;28;20366;-45
2022/03/17 03:34:22;;;;;;;;;;;19.90;38.40;;;;;;5072591;28;19959;-51
2022/03/17 03:39:36;;;;;;;;;;;19.90;38.30;;;;;;5071064;28;19921;-46
2022/03/17 03:42:05;;;;;;;;;;;19.90;38.30;;;;;;5053783;28;19920;-44
2022/03/17 03:44:31;;;;;;;;;;;19.90;38.30;;;;;;5052394;28;20457;-45
2022/03/17 03:46:58;;;;;;;;;;;19.90;38.30;;;;;;5055495;28;19925;-45
2022/03/17 03:49:26;;;;;;;;;;;19.90;38.30;;;;;;5062160;28;19932;-49
2022/03/17 03:51:53;;;;;;;;;;;20.00;38.40;;;;;;5053601;28;20370;-47
2022/03/17 03:54:20;;;;;;;;;;;19.90;38.30;;;;;;5057848;28;19967;-50
2022/03/17 03:56:47;;;;;;;;;;;19.90;38.30;;;;;;5062256;28;19953;-47
2022/03/17 03:59:18;;;;;;;;;;;19.90;38.30;;;;;;5053743;28;19978;-47
2022/03/17 04:01:45;;;;;;;;;;;19.90;38.30;;;;;;5068527;28;19920;-46
2022/03/17 04:04:16;;;;;;;;;;;19.90;38.30;;;;;;5056726;28;19959;-44
2022/03/17 04:06:46;;;;;;;;;;;19.90;38.30;;;;;;5071435;28;19921;-46
2022/03/17 04:09:13;;;;;;;;;;;19.90;38.30;;;;;;5060182;28;19932;-47
2022/03/17 04:11:40;;;;;;;;;;;19.90;38.30;;;;;;5050739;28;19963;-45
2022/03/17 04:14:06;;;;;;;;;;;19.90;38.30;;;;;;5052827;28;20004;-48
2022/03/17 04:16:33;;;;;;;;;;;19.90;38.30;;;;;;5048415;28;19932;-48
2022/03/17 04:19:00;;;;;;;;;;;19.90;38.30;;;;;;5057471;28;19948;-45
2022/03/17 04:21:26;;;;;;;;;;;19.90;38.30;;;;;;5063396;28;19920;-43
2022/03/17 04:23:55;;;;;;;;;;;19.90;38.30;;;;;;5052818;28;19920;-43
2022/03/17 04:26:21;;;;;;;;;;;19.90;38.30;;;;;;5055872;28;19966;-44
2022/03/17 04:28:48;;;;;;;;;;;19.90;38.30;;;;;;5042931;28;20401;-44
2022/03/17 04:31:15;;;;;;;;;;;19.90;38.30;;;;;;5048633;28;19985;-48
2022/03/17 04:33:42;;;;;;;;;;;19.90;38.30;;;;;;5055607;28;19925;-45
2022/03/17 04:36:10;;;;;;;;;;;19.90;38.30;;;;;;5052017;28;19924;-48
2022/03/17 04:38:37;;;;;;;;;;;19.90;38.30;;;;;;5055850;28;19921;-44
2022/03/17 04:41:05;;;;;;;;;;;19.90;38.30;;;;;;5057521;28;19928;-45
2022/03/17 04:43:32;;;;;;;;;;;20.00;38.40;;;;;;5054478;28;19966;-44
2022/03/17 04:45:59;;;;;;;;;;;19.90;38.30;;;;;;5055766;28;19920;-44
2022/03/17 04:48:26;;;;;;;;;;;19.90;38.30;;;;;;5054821;28;19997;-44
2022/03/17 04:50:53;;;;;;;;;;;19.90;38.30;;;;;;5068780;28;19921;-46
2022/03/17 04:53:29;;;;;;;;;;;19.90;38.20;;;;;;5070030;28;19974;-46
2022/03/17 04:55:58;;;;;;;;;;;19.90;38.20;;;;;;5048125;28;19975;-45
2022/03/17 04:58:26;;;;;;;;;;;19.90;38.20;;;;;;5051089;28;19932;-47
2022/03/17 05:00:55;;;;;;;;;;;19.90;38.20;;;;;;5027093;28;20425;-43
2022/03/17 05:03:22;;;;;;;;;;;19.90;38.20;;;;;;5066810;28;20377;-45
2022/03/17 05:05:49;;;;;;;;;;;19.90;38.20;;;;;;5069808;28;19946;-46
2022/03/17 05:08:16;;;;;;;;;;;19.90;38.20;;;;;;5045775;28;19920;-50
2022/03/17 05:10:43;;;;;;;;;;;19.90;38.30;;;;;;5066760;28;20250;-48
2022/03/17 05:13:13;;;;;;;;;;;20.00;38.30;;;;;;5052423;28;19995;-44
2022/03/17 05:15:43;;;;;;;;;;;19.90;38.20;;;;;;5057657;28;19925;-44
2022/03/17 05:18:10;;;;;;;;;;;19.90;38.30;;;;;;5046951;28;19924;-47
2022/03/17 05:20:37;;;;;;;;;;;19.90;38.20;;;;;;5050600;28;20233;-44
2022/03/17 05:23:04;;;;;;;;;;;20.00;38.30;;;;;;5049689;28;19920;-46
2022/03/17 05:25:31;;;;;;;;;;;19.90;38.20;;;;;;5044579;28;20317;-46
2022/03/17 05:27:58;;;;;;;;;;;20.00;38.30;;;;;;5044822;28;20650;-45
2022/03/17 05:30:25;;;;;;;;;;;19.90;38.20;;;;;;5049580;28;19964;-45
2022/03/17 05:32:53;;;;;;;;;;;19.90;38.20;;;;;;5052673;28;19929;-44
2022/03/17 05:35:20;;;;;;;;;;;19.90;38.30;;;;;;5060376;28;19921;-47
2022/03/17 05:37:48;;;;;;;;;;;19.90;38.20;;;;;;5035506;28;19990;-46
2022/03/17 05:40:16;;;;;;;;;;;20.00;38.30;;;;;;5050010;28;19928;-47
2022/03/17 05:42:43;;;;;;;;;;;19.90;38.30;;;;;;5065693;28;19921;-44
2022/03/17 05:45:10;;;;;;;;;;;19.90;38.20;;;;;;5060035;28;19925;-43
2022/03/17 05:47:37;;;;;;;;;;;19.90;38.20;;;;;;5041232;28;20453;-47
2022/03/17 05:50:06;;;;;;;;;;;20.00;38.30;;;;;;5052366;28;19935;-47
2022/03/17 05:52:32;;;;;;;;;;;20.00;38.30;;;;;;5071974;28;19960;-47
2022/03/17 05:54:59;;;;;;;;;;;20.00;38.30;;;;;;5033948;28;19932;-45
2022/03/17 05:57:26;;;;;;;;;;;19.90;38.20;;;;;;5033890;28;20015;-46
2022/03/17 05:59:53;;;;;;;;;;;20.00;38.30;;;;;;5031976;28;19932;-49
2022/03/17 06:02:19;;;;;;;;;;;20.00;38.30;;;;;;5051005;28;19924;-48
2022/03/17 06:04:46;;;;;;;;;;;20.00;38.30;;;;;;5031818;28;20278;-47
2022/03/17 06:07:14;;;;;;;;;;;19.90;38.20;;;;;;5039424;28;20163;-45
2022/03/17 06:09:41;;;;;;;;;;;19.90;38.20;;;;;;5070537;28;20458;-45
2022/03/17 06:12:11;;;;;;;;;;;19.90;38.20;;;;;;5052014;28;19920;-45
2022/03/17 06:14:40;;;;;;;;;;;19.90;38.20;;;;;;5067594;28;19928;-47
2022/03/17 06:17:07;;;;;;;;;;;19.90;38.20;;;;;;5052865;28;20593;-48
2022/03/17 06:19:33;;;;;;;;;;;19.90;38.20;;;;;;5062886;28;19920;-49
2022/03/17 06:22:00;;;;;;;;;;;20.00;38.30;;;;;;5051086;28;19924;-45
2022/03/17 06:24:28;;;;;;;;;;;19.90;38.30;;;;;;5071418;28;19977;-45
2022/03/17 06:26:55;;;;;;;;;;;19.90;38.30;;;;;;5065448;28;19921;-45
2022/03/17 06:29:21;;;;;;;;;;;19.90;38.30;;;;;;5056377;28;19931;-48
2022/03/17 06:31:49;;;;;;;;;;;20.00;38.40;;;;;;5051559;28;20022;-46
2022/03/17 06:34:15;;;;;;;;;;;20.00;38.40;;;;;;5044391;28;19924;-45
2022/03/17 06:36:42;;;;;;;;;;;20.00;38.40;;;;;;5065408;28;19924;-46
2022/03/17 06:39:09;;;;;;;;;;;20.00;38.40;;;;;;5041252;28;19924;-46
2022/03/17 06:41:37;;;;;;;;;;;20.00;38.40;;;;;;5048102;28;19948;-49
2022/03/17 06:44:04;;;;;;;;;;;20.00;38.40;;;;;;5054625;28;19944;-49
2022/03/17 06:46:30;;;;;;;;;;;20.00;38.40;;;;;;5054745;28;19933;-48
2022/03/17 06:48:57;;;;;;;;;;;20.00;38.40;;;;;;5038148;28;20362;-45
2022/03/17 06:51:24;;;;;;;;;;;20.00;38.40;;;;;;5056547;28;19967;-50
2022/03/17 06:53:52;;;;;;;;;;;20.00;38.40;;;;;;5058747;28;19982;-47
2022/03/17 06:56:20;;;;;;;;;;;20.00;38.40;;;;;;5061840;28;19930;-46
2022/03/17 06:58:48;;;;;;;;;;;20.00;38.40;;;;;;5067682;28;20375;-45
2022/03/17 07:01:15;;;;;;;;;;;20.00;38.40;;;;;;5065812;28;20026;-46
2022/03/17 07:03:42;;;;;;;;;;;20.00;38.30;;;;;;5062965;28;19926;-44
2022/03/17 07:06:08;;;;;;;;;;;20.00;38.40;;;;;;5081676;28;20315;-44
2022/03/17 07:08:35;;;;;;;;;;;20.00;38.90;;;;;;5065378;28;19929;-45
2022/03/17 07:11:02;;;;;;;;;;;20.00;38.30;;;;;;5083937;28;19985;-49
2022/03/17 07:13:29;;;;;;;;;;;20.00;38.40;;;;;;5061224;28;19920;-46
2022/03/17 07:15:57;;;;;;;;;;;20.00;38.30;;;;;;5082365;28;19938;-45
2022/03/17 07:18:26;;;;;;;;;;;20.00;38.40;;;;;;5062081;28;20018;-49
2022/03/17 07:20:57;;;;;;;;;;;20.00;38.90;;;;;;5064286;28;19920;-47
2022/03/17 07:23:24;;;;;;;;;;;20.00;38.30;;;;;;5079813;28;19998;-47
2022/03/17 07:25:53;;;;;;;;;;;20.00;38.30;;;;;;5063267;28;19920;-45
2022/03/17 07:28:20;;;;;;;;;;;20.00;38.30;;;;;;5064340;28;19946;-47
2022/03/17 07:30:47;;;;;;;;;;;20.00;38.30;;;;;;5061735;28;20354;-45
2022/03/17 07:33:15;;;;;;;;;;;20.00;38.30;;;;;;5061604;28;20004;-48
2022/03/17 07:35:43;;;;;;;;;;;20.00;38.90;;;;;;5077258;28;19924;-48
2022/03/17 07:38:10;;;;;;;;;;;20.00;38.30;;;;;;5061530;28;19932;-47
2022/03/17 07:40:36;;;;;;;;;;;20.00;38.30;;;;;;5059564;28;19952;-44
2022/03/17 07:43:04;;;;;;;;;;;20.00;38.30;;;;;;5074765;28;20019;-47
2022/03/17 07:45:30;;;;;;;;;;;20.00;38.30;;;;;;5063089;28;19932;-45
2022/03/17 07:47:57;;;;;;;;;;;20.00;38.40;;;;;;5059225;28;20373;-44
2022/03/17 07:50:25;;;;;;;;;;;20.00;38.40;;;;;;5058736;28;19999;-44
2022/03/17 07:52:52;;;;;;;;;;;20.00;38.40;;;;;;5042445;28;19920;-46
2022/03/17 07:55:19;;;;;;;;;;;20.00;38.40;;;;;;5051815;28;19973;-44
2022/03/17 07:57:46;;;;;;;;;;;20.00;39.00;;;;;;5046672;28;19921;-45
2022/03/17 08:00:13;;;;;;;;;;;20.00;38.40;;;;;;5063654;28;20022;-46
2022/03/17 08:02:41;;;;;;;;;;;20.00;38.40;;;;;;5058179;28;20368;-45
2022/03/17 08:05:08;;;;;;;;;;;20.00;38.40;;;;;;5040363;28;20026;-44
2022/03/17 08:07:36;;;;;;;;;;;20.00;38.50;;;;;;5043059;28;19932;-44
2022/03/17 08:10:03;;;;;;;;;;;20.00;38.40;;;;;;5056128;28;19921;-47
2022/03/17 08:12:31;;;;;;;;;;;20.00;38.40;;;;;;5072265;28;19935;-44
2022/03/17 08:15:01;;;;;;;;;;;20.00;38.50;;;;;;5059860;28;19920;-45
2022/03/17 08:17:28;;;;;;;;;;;20.00;38.40;;;;;;5051978;28;19951;-44
2022/03/17 08:19:58;;;;;;;;;;;20.00;38.50;;;;;;5066184;28;19920;-43
2022/03/17 08:22:24;;;;;;;;;;;20.00;38.50;;;;;;5063652;28;19920;-45
2022/03/17 08:24:52;;;;;;;;;;;20.00;38.60;;;;;;5056237;28;20277;-45
2022/03/17 08:27:19;;;;;;;;;;;20.00;38.50;;;;;;5072921;28;19971;-43
2022/03/17 08:29:48;;;;;;;;;;;20.10;38.60;;;;;;5069843;28;19921;-43
2022/03/17 08:32:14;;;;;;;;;;;20.10;38.60;;;;;;5069765;28;19942;-43
2022/03/17 08:34:41;;;;;;;;;;;20.10;38.60;;;;;;5054623;28;20277;-42
2022/03/17 08:37:09;;;;;;;;;;;20.10;38.60;;;;;;5045459;28;19936;-42
2022/03/17 08:39:36;;;;;;;;;;;20.10;38.60;;;;;;5050138;28;19927;-43
2022/03/17 08:42:05;;;;;;;;;;;20.10;38.60;;;;;;5055435;28;19953;-48
2022/03/17 08:44:31;;;;;;;;;;;20.10;38.60;;;;;;5047451;28;19935;-45
2022/03/17 08:49:42;;;;;;;;;;;20.10;38.60;;;;;;5068667;28;19927;-44
2022/03/17 08:52:09;;;;;;;;;;;20.10;38.60;;;;;;5062344;28;19920;-45
2022/03/17 08:54:36;;;;;;;;;;;20.10;38.60;;;;;;5057264;28;19943;-45
2022/03/17 08:57:05;;;;;;;;;;;20.10;38.60;;;;;;5040520;28;19921;-45
2022/03/17 08:59:33;;;;;;;;;;;20.10;38.60;;;;;;5066534;28;19924;-46
2022/03/17 09:01:59;;;;;;;;;;;20.10;38.60;;;;;;5052291;28;20018;-45
2022/03/17 09:04:27;;;;;;;;;;;20.10;38.70;;;;;;5043377;28;19927;-43
2022/03/17 09:06:59;;;;;;;;;;;20.20;38.80;;;;;;5045719;28;20024;-43
2022/03/17 09:09:26;;;;;;;;;;;20.20;38.80;;;;;;5062915;28;20295;-43
2022/03/17 09:11:53;;;;;;;;;;;20.20;38.80;;;;;;5056248;28;19928;-43
2022/03/17 09:14:21;;;;;;;;;;;20.20;38.80;;;;;;5045187;28;20019;-44
2022/03/17 09:16:47;;;;;;;;;;;20.20;38.80;;;;;;5050188;28;19920;-45
2022/03/17 09:19:14;;;;;;;;;;;20.20;38.90;;;;;;5054936;28;19920;-45
2022/03/17 09:21:41;;;;;;;;;;;20.20;38.80;;;;;;5053222;28;19955;-42
2022/03/17 09:24:09;;;;;;;;;;;20.20;38.90;;;;;;5050671;28;20457;-42
2022/03/17 09:26:36;;;;;;;;;;;20.20;38.90;;;;;;5073235;28;19955;-43
2022/03/17 09:29:03;;;;;;;;;;;20.20;38.90;;;;;;5069124;28;20410;-46
2022/03/17 09:31:32;;;;;;;;;;;20.20;38.90;;;;;;5051752;28;19925;-43
2022/03/17 09:33:58;;;;;;;;;;;20.20;38.90;;;;;;5075009;28;20403;-44
2022/03/17 09:36:25;;;;;;;;;;;20.20;38.90;;;;;;5066107;28;19920;-43
2022/03/17 09:41:33;;;;;;;;;;;20.20;38.90;;;;;;5073239;28;20334;-44
2022/03/17 09:44:00;;;;;;;;;;;20.20;38.90;;;;;;5060116;28;19988;-47
2022/03/17 09:46:28;;;;;;;;;;;20.20;39.50;;;;;;5061540;28;19942;-47
2022/03/17 09:48:56;;;;;;;;;;;20.20;38.90;;;;;;5061220;28;19924;-45
2022/03/17 09:51:23;;;;;;;;;;;20.20;38.90;;;;;;5061813;28;20388;-43
2022/03/17 09:53:53;;;;;;;;;;;20.20;38.90;;;;;;5072327;28;19921;-46
2022/03/17 09:56:23;;;;;;;;;;;20.30;39.10;;;;;;5054461;28;19930;-49
2022/03/17 09:58:50;;;;;;;;;;;20.20;39.00;;;;;;5053169;28;19923;-46
2022/03/17 10:01:17;;;;;;;;;;;20.30;39.00;;;;;;5055552;28;19920;-44
2022/03/17 10:03:44;;;;;;;;;;;20.30;39.00;;;;;;5061360;28;20234;-51
2022/03/17 10:06:14;;;;;;;;;;;20.30;39.00;;;;;;5059623;28;20365;-44
2022/03/17 10:08:41;;;;;;;;;;;20.30;39.00;;;;;;5058107;28;19920;-43
2022/03/17 10:11:08;;;;;;;;;;;20.30;39.00;;;;;;5063349;28;19924;-46
2022/03/17 10:13:42;;;;;;;;;;;20.30;39.00;;;;;;5053907;28;19921;-44
2022/03/17 10:16:09;;;;;;;;;;;20.30;39.00;;;;;;5073250;28;19943;-45
2022/03/17 10:18:37;;;;;;;;;;;20.30;39.10;;;;;;5063344;28;19982;-44
2022/03/17 10:21:12;;;;;;;;;;;20.30;39.10;;;;;;5071071;28;19935;-44
2022/03/17 10:23:45;;;;;;;;;;;20.30;39.00;;;;;;5063188;28;19931;-44
2022/03/17 10:26:12;;;;;;;;;;;20.30;39.00;;;;;;5056117;28;19997;-47
2022/03/17 10:28:40;;;;;;;;;;;20.30;39.10;;;;;;5052237;28;20147;-45
2022/03/17 10:31:08;;;;;;;;;;;20.30;39.00;;;;;;5064999;28;19921;-43
2022/03/17 10:33:34;;;;;;;;;;;20.30;39.00;;;;;;5063996;28;19927;-44
2022/03/17 10:36:15;;;;;;;;;;;20.30;39.10;;;;;;5055434;28;21260;-46
2022/03/17 10:38:45;;;;;;;;;;;20.30;39.10;;;;;;5066555;28;19928;-48
2022/03/17 10:41:12;;;;;;;;;;;20.30;39.10;;;;;;5068545;28;19947;-43
2022/03/17 10:43:41;;;;;;;;;;;20.30;39.10;;;;;;5072200;28;19920;-45
2022/03/17 10:46:09;;;;;;;;;;;20.40;39.20;;;;;;5058997;28;19920;-47
2022/03/17 10:48:35;;;;;;;;;;;20.30;39.10;;;;;;5072263;28;20023;-43
2022/03/17 10:51:02;;;;;;;;;;;20.40;39.20;;;;;;5075146;28;20003;-45
2022/03/17 10:53:31;;;;;;;;;;;20.40;39.20;;;;;;5055802;28;19924;-43
2022/03/17 10:56:09;;;;;;;;;;;20.40;39.20;;;;;;5048545;28;20387;-44
2022/03/17 10:58:41;;;;;;;;;;;20.40;39.20;;;;;;5045107;28;19948;-45
2022/03/17 11:01:08;;;;;;;;;;;20.40;39.30;;;;;;5037420;28;20014;-44
2022/03/17 11:03:35;;;;;;;;;;;20.40;39.20;;;;;;5062007;28;19931;-44
2022/03/17 11:06:02;;;;;;;;;;;20.40;39.30;;;;;;5081138;28;19920;-49
2022/03/17 11:08:29;;;;;;;;;;;20.40;39.30;;;;;;5051826;28;19920;-45
2022/03/17 11:10:57;;;;;;;;;;;20.40;39.30;;;;;;5071403;28;19927;-47
2022/03/17 11:13:24;;;;;;;;;;;20.40;39.30;;;;;;5056416;28;19944;-45
2022/03/17 11:15:56;;;;;;;;;;;20.40;39.30;;;;;;5061315;28;20010;-44
2022/03/17 11:18:23;;;;;;;;;;;20.40;39.30;;;;;;5052323;28;19944;-46
2022/03/17 11:20:49;;;;;;;;;;;20.40;39.30;;;;;;5044531;28;19943;-45
2022/03/17 11:23:19;;;;;;;;;;;20.40;39.30;;;;;;5055469;28;20054;-46
2022/03/17 11:25:46;;;;;;;;;;;20.40;39.30;;;;;;5058577;28;20019;-45
2022/03/17 11:28:15;;;;;;;;;;;20.40;39.30;;;;;;5072294;28;20408;-46
2022/03/17 11:30:43;;;;;;;;;;;20.40;39.30;;;;;;5046269;28;20350;-46
2022/03/17 11:33:23;;;;;;;;;;;20.40;39.30;;;;;;5069290;28;19955;-46
2022/03/17 11:35:53;;;;;;;;;;;20.40;39.30;;;;;;5051000;28;19921;-42
2022/03/17 11:38:20;;;;;;;;;;;20.40;39.30;;;;;;5075872;28;19954;-45
2022/03/17 11:41:08;;;;;;;;;;;20.40;39.30;;;;;;5057825;28;19951;-43
2022/03/17 11:43:40;;;;;;;;;;;20.40;39.30;;;;;;5059784;28;19920;-45
2022/03/17 11:46:10;;;;;;;;;;;20.40;39.20;;;;;;5057249;28;19985;-44
2022/03/17 11:48:37;;;;;;;;;;;20.40;39.30;;;;;;5061977;28;19920;-44
2022/03/17 11:51:04;;;;;;;;;;;20.40;39.30;;;;;;5046350;28;20384;-45
2022/03/17 11:53:40;;;;;;;;;;;20.40;39.30;;;;;;5045983;28;19921;-49
2022/03/17 11:56:09;;;;;;;;;;;20.40;39.30;;;;;;5042244;28;20277;-56
2022/03/17 11:58:42;;;;;;;;;;;20.40;39.30;;;;;;5062978;28;19920;-52
2022/03/17 12:01:11;;;;;;;;;;;20.40;39.30;;;;;;5050767;28;19931;-59
2022/03/17 12:03:39;;;;;;;;;;;20.40;39.30;;;;;;5047761;28;19920;-51
2022/03/17 12:06:10;;;;;;;;;;;20.40;39.30;;;;;;5053496;28;19920;-52
2022/03/17 12:08:37;;;;;;;;;;;20.40;39.40;;;;;;5056494;28;19926;-53
2022/03/17 12:11:08;;;;;;;;;;;20.40;39.50;;;;;;5050057;28;19960;-53
2022/03/17 12:13:36;;;;;;;;;;;20.40;39.50;;;;;;5052784;28;19973;-49
2022/03/17 12:16:05;;;;;;;;;;;20.40;39.50;;;;;;5046344;28;19966;-51
2022/03/17 12:18:47;;;;;;;;;;;20.40;39.60;;;;;;5057768;28;19924;-49
2022/03/17 12:21:14;;;;;;;;;;;20.40;39.60;;;;;;5046930;28;20083;-52
2022/03/17 12:23:45;;;;;;;;;;;20.40;39.60;;;;;;5049256;28;19924;-51
2022/03/17 12:26:12;;;;;;;;;;;20.40;39.60;;;;;;5067556;28;19981;-53
2022/03/17 12:28:43;;;;;;;;;;;20.40;39.60;;;;;;5057095;28;19920;-50
2022/03/17 12:31:11;;;;;;;;;;;20.40;39.70;;;;;;5069190;28;20016;-51
2022/03/17 12:33:38;;;;;;;;;;;20.40;39.70;;;;;;5063336;28;19967;-55
2022/03/17 12:36:06;;;;;;;;;;;20.30;39.50;;;;;;5045776;28;20039;-49
2022/03/17 12:38:34;;;;;;;;;;;20.30;39.60;;;;;;5042186;28;19924;-53
2022/03/17 12:41:00;;;;;;;;;;;20.30;39.60;;;;;;5044041;28;19921;-52
2022/03/17 12:43:27;;;;;;;;;;;20.30;39.60;;;;;;5069135;28;19920;-58
2022/03/17 12:45:56;;;;;;;;;;;20.30;39.60;;;;;;5045125;28;20063;-52
2022/03/17 12:48:25;;;;;;;;;;;20.30;39.60;;;;;;5049543;28;19925;-53
2022/03/17 12:50:52;;;;;;;;;;;20.30;39.60;;;;;;5038811;28;19928;-53
2022/03/17 12:53:19;;;;;;;;;;;20.30;39.50;;;;;;5039804;28;19920;-54
2022/03/17 12:55:46;;;;;;;;;;;20.30;39.40;;;;;;5050353;28;19974;-54
2022/03/17 12:58:16;;;;;;;;;;;20.30;39.30;;;;;;5067236;28;19971;-51
2022/03/17 13:00:43;;;;;;;;;;;20.30;39.30;;;;;;5076178;28;19996;-47
2022/03/17 13:03:15;;;;;;;;;;;20.30;39.30;;;;;;5049411;28;19940;-45
2022/03/17 13:08:34;;;;;;;;;;;20.20;39.20;;;;;;5059015;28;19928;-49
2022/03/17 13:16:29;;;;;;;;;;;20.20;39.20;;;;;;5056302;28;19977;-45
2022/03/17 13:18:56;;;;;;;;;;;20.20;39.30;;;;;;5071700;28;20015;-45
2022/03/17 13:21:25;;;;;;;;;;;20.20;39.30;;;;;;5053399;28;19987;-46
2022/03/17 13:23:52;;;;;;;;;;;20.20;39.30;;;;;;5054177;28;19920;-44
2022/03/17 13:26:22;;;;;;;;;;;20.30;39.40;;;;;;5060245;28;20242;-45
2022/03/17 13:29:01;;;;;;;;;;;20.30;39.40;;;;;;5047393;28;19929;-46
2022/03/17 13:31:34;;;;;;;;;;;20.30;39.40;;;;;;5045215;28;19932;-46
2022/03/17 13:34:01;;;;;;;;;;;20.30;39.40;;;;;;5039421;28;19943;-46
2022/03/17 13:36:43;;;;;;;;;;;20.30;39.40;;;;;;5046075;28;19924;-46
2022/03/17 13:39:12;;;;;;;;;;;20.30;39.40;;;;;;5039369;28;19974;-43
2022/03/17 13:41:39;;;;;;;;;;;20.30;39.40;;;;;;5064102;28;19978;-45
2022/03/17 13:44:05;;;;;;;;;;;20.30;39.40;;;;;;5050749;28;20241;-45
2022/03/17 13:46:35;;;;;;;;;;;20.30;39.40;;;;;;5043435;28;19955;-44
2022/03/17 13:49:13;;;;;;;;;;;20.30;39.40;;;;;;5054157;28;20011;-45
2022/03/17 13:51:40;;;;;;;;;;;20.30;39.40;;;;;;5067925;28;19963;-45
2022/03/17 13:54:07;;;;;;;;;;;20.30;39.40;;;;;;5045342;28;19931;-44
2022/03/17 13:56:35;;;;;;;;;;;20.30;39.40;;;;;;5051432;28;20368;-44
2022/03/17 13:59:02;;;;;;;;;;;20.30;39.40;;;;;;5048665;28;20187;-45
2022/03/17 14:01:29;;;;;;;;;;;20.30;39.40;;;;;;5045720;28;19921;-43
2022/03/17 14:03:58;;;;;;;;;;;20.40;39.50;;;;;;5038754;28;19920;-44
2022/03/17 14:06:26;;;;;;;;;;;20.40;39.50;;;;;;5037954;28;19921;-46
2022/03/17 14:08:53;;;;;;;;;;;20.40;39.60;;;;;;5046518;28;20258;-45
2022/03/17 14:11:21;;;;;;;;;;;20.40;39.60;;;;;;5043118;28;19939;-44
2022/03/17 14:13:49;;;;;;;;;;;20.40;39.60;;;;;;5037047;28;19971;-44
2022/03/17 14:16:17;;;;;;;;;;;20.40;39.60;;;;;;5043406;28;19921;-45
2022/03/17 14:18:44;;;;;;;;;;;20.40;39.60;;;;;;5058538;28;19935;-45
2022/03/17 14:21:11;;;;;;;;;;;20.40;39.60;;;;;;5047537;28;19921;-48
2022/03/17 14:26:22;;;;;;;;;;;20.40;39.70;;;;;;5049838;28;20377;-46
2022/03/17 14:28:50;;;;;;;;;;;20.40;39.70;;;;;;5063583;28;20356;-50
2022/03/17 14:31:18;;;;;;;;;;;20.40;39.70;;;;;;5045467;28;20053;-47
2022/03/17 14:33:45;;;;;;;;;;;20.40;39.70;;;;;;5050050;28;19932;-44
2022/03/17 14:36:12;;;;;;;;;;;20.40;39.80;;;;;;5049712;28;20263;-44
2022/03/17 14:38:39;;;;;;;;;;;20.40;39.80;;;;;;5054305;28;19967;-45
2022/03/17 14:41:07;;;;;;;;;;;20.40;39.80;;;;;;5050109;28;20316;-45
2022/03/17 14:43:34;;;;;;;;;;;20.40;39.80;;;;;;5047240;28;20382;-44
2022/03/17 14:46:02;;;;;;;;;;;20.40;39.80;;;;;;5044866;28;20015;-44